createdAt,value
2023-03-26T00:02:04.705Z,60.63
2023-03-26T00:07:07.080Z,53.50
2023-03-26T00:12:11.159Z,52.13
2023-03-26T00:17:13.587Z,46.78
2023-03-26T00:22:17.336Z,50.22
2023-03-26T00:27:19.959Z,48.35
2023-03-26T00:32:23.243Z,42.22
2023-03-26T00:37:27.037Z,38.80
2023-03-26T00:42:29.740Z,36.17
2023-03-26T00:47:32.179Z,36.42
2023-03-26T00:52:36.886Z,32.13
2023-03-26T00:57:41.362Z,30.30
2023-03-26T01:02:45.391Z,28.20
2023-03-26T01:07:48.212Z,26.88
2023-03-26T01:12:51.278Z,24.73
2023-03-26T01:17:58.119Z,24.27
2023-03-26T01:23:05.506Z,23.52
2023-03-26T01:28:12.857Z,25.25
2023-03-26T01:33:30.538Z,25.60
2023-03-26T01:39:00.576Z,27.02
2023-03-26T01:44:19.522Z,29.73
2023-03-26T01:49:22.492Z,31.42
2023-03-26T01:54:29.996Z,33.30
2023-03-26T01:59:43.818Z,41.53
2023-03-26T02:05:00.748Z,40.95
2023-03-26T02:10:11.539Z,44.10
2023-03-26T02:15:14.869Z,43.75
2023-03-26T02:20:19.165Z,45.38
2023-03-26T02:25:22.810Z,43.67
2023-03-26T02:30:26.578Z,42.47
2023-03-26T02:35:32.809Z,41.63
2023-03-26T02:40:37.704Z,40.17
2023-03-26T02:45:41.884Z,41.95
2023-03-26T02:51:04.310Z,38.60
2023-03-26T02:56:27.661Z,41.42
2023-03-26T03:01:51.429Z,44.80
2023-03-26T03:06:57.880Z,41.78
2023-03-26T03:12:01.904Z,48.03
2023-03-26T03:17:04.866Z,46.00
2023-03-26T03:22:08.454Z,45.33
2023-03-26T03:27:12.827Z,44.67
2023-03-26T03:32:26.263Z,42.63
2023-03-26T03:37:32.878Z,42.55
2023-03-26T03:42:37.821Z,44.13
2023-03-26T03:47:42.899Z,43.35
2023-03-26T03:52:46.028Z,44.45
2023-03-26T03:57:52.768Z,38.42
2023-03-26T04:02:59.183Z,38.28
2023-03-26T04:08:04.268Z,36.50
2023-03-26T04:13:18.400Z,34.58
2023-03-26T04:18:27.926Z,37.60
2023-03-26T04:23:32.768Z,33.50
2023-03-26T04:28:51.134Z,36.10
2023-03-26T04:34:07.990Z,36.92
2023-03-26T04:39:18.965Z,36.53
2023-03-26T04:44:43.162Z,33.95
2023-03-26T04:49:48.748Z,33.80
2023-03-26T04:54:53.921Z,32.13
2023-03-26T05:00:00.387Z,29.83
2023-03-26T05:05:08.774Z,27.15
2023-03-26T05:23:08.732Z,10.82
2023-03-26T05:29:29.155Z,9.50
2023-03-26T05:42:08.053Z,8.60
2023-03-26T05:47:27.705Z,7.85
2023-03-26T05:52:31.743Z,11.77
2023-03-26T05:58:34.858Z,9.30
2023-03-26T06:05:10.085Z,12.45
2023-03-26T06:11:00.137Z,8.27
2023-03-26T06:17:22.682Z,8.57
2023-03-26T06:22:48.684Z,7.45
2023-03-26T06:28:43.756Z,7.82
2023-03-26T06:34:05.600Z,7.25
2023-03-26T06:39:08.291Z,6.97
2023-03-26T06:44:15.805Z,18.05
2023-03-26T06:49:38.418Z,7.53
2023-03-26T06:54:54.886Z,6.40
2023-03-26T07:00:21.528Z,5.90
2023-03-26T07:05:42.946Z,5.93
2023-03-26T07:11:04.229Z,4.97
2023-03-26T07:16:38.622Z,5.22
2023-03-26T07:21:55.179Z,4.68
2023-03-26T07:27:38.563Z,4.68
2023-03-26T07:32:47.213Z,4.55
2023-03-26T07:38:28.309Z,4.95
2023-03-26T07:44:20.617Z,4.00
2023-03-26T07:49:58.011Z,4.38
2023-03-26T07:55:25.820Z,4.10
2023-03-26T08:01:10.824Z,3.72
2023-03-26T08:06:35.686Z,4.07
2023-03-26T08:12:18.840Z,4.55
2023-03-26T08:17:31.124Z,3.50
2023-03-26T08:22:42.054Z,3.42
2023-03-26T08:28:04.572Z,5.28
2023-03-26T08:33:19.128Z,3.95
2023-03-26T08:38:24.429Z,9.88
2023-03-26T10:21:02.199Z,5.07
2023-03-26T10:26:20.194Z,4.68
2023-03-26T10:31:27.715Z,4.85
2023-03-26T10:36:35.174Z,5.22
2023-03-26T10:42:16.696Z,4.68
2023-03-26T10:47:46.261Z,6.70
2023-03-26T10:52:59.569Z,9.32
2023-03-26T10:58:13.762Z,7.43
2023-03-26T11:03:54.749Z,6.28
2023-03-26T11:09:29.303Z,5.38
2023-03-26T11:14:44.466Z,5.40
2023-03-26T11:19:58.051Z,4.68
2023-03-26T11:25:38.156Z,4.75
2023-03-26T11:30:57.288Z,4.53
2023-03-26T11:36:09.061Z,4.63
2023-03-26T11:46:59.335Z,4.85
2023-03-26T11:52:03.671Z,5.53
2023-03-26T11:57:27.125Z,4.63
2023-03-26T12:02:40.100Z,4.43
2023-03-26T12:07:53.824Z,3.80
2023-03-26T12:13:00.378Z,4.30
2023-03-26T12:18:25.422Z,4.68
2023-03-26T12:23:38.331Z,3.88
2023-03-26T12:28:50.085Z,3.78
2023-03-26T12:34:23.196Z,3.20
2023-03-26T12:40:43.067Z,2.80
2023-03-26T12:47:54.578Z,2.40
2023-03-26T12:51:38.670Z,2.15
2023-03-26T12:57:11.628Z,3.10
2023-03-26T13:02:47.464Z,3.25
2023-03-26T13:08:00.643Z,2.78
2023-03-26T13:13:12.102Z,2.67
2023-03-26T13:18:38.946Z,3.40
2023-03-26T13:23:44.763Z,3.10
2023-03-26T13:29:09.077Z,3.42
2023-03-26T13:34:36.573Z,3.60
2023-03-26T13:40:09.703Z,3.97
2023-03-26T13:45:12.109Z,5.20
2023-03-26T13:50:32.133Z,3.67
2023-03-26T14:01:02.878Z,3.85
2023-03-26T14:06:21.824Z,6.05
2023-03-26T14:11:45.519Z,7.10
2023-03-26T14:16:56.354Z,7.22
2023-03-26T14:22:38.890Z,5.28
2023-03-26T14:28:06.927Z,5.50
2023-03-26T14:33:38.849Z,6.60
2023-03-26T14:38:44.576Z,6.45
2023-03-26T14:44:24.436Z,6.93
2023-03-26T14:49:52.236Z,8.05
2023-03-26T14:55:01.814Z,7.95
2023-03-26T15:01:04.159Z,6.80
2023-03-26T15:06:50.186Z,6.63
2023-03-26T15:12:13.058Z,5.93
2023-03-26T15:17:50.236Z,5.80
2023-03-26T15:23:30.170Z,5.82
2023-03-26T15:28:33.885Z,5.47
2023-03-26T15:33:49.025Z,5.03
2023-03-26T15:39:09.763Z,4.90
2023-03-26T15:44:22.839Z,4.85
2023-03-26T15:49:52.504Z,5.20
2023-03-26T15:55:11.306Z,4.85
2023-03-26T16:00:29.924Z,4.53
2023-03-26T16:05:38.490Z,4.80
2023-03-26T16:10:50.178Z,4.13
2023-03-26T16:16:07.401Z,3.90
2023-03-26T16:21:31.361Z,3.10
2023-03-26T16:27:08.182Z,4.00
2023-03-26T16:32:28.977Z,3.83
2023-03-26T16:37:43.114Z,6.90
2023-03-26T16:43:07.265Z,7.18
2023-03-26T16:48:31.524Z,5.50
2023-03-26T16:53:57.961Z,4.50
2023-03-26T16:59:10.484Z,4.30
2023-03-26T17:04:23.892Z,5.00
2023-03-26T17:09:29.806Z,5.25
2023-03-26T17:14:54.046Z,4.90
2023-03-26T17:20:24.075Z,3.80
2023-03-26T17:25:37.882Z,4.40
2023-03-26T17:31:41.950Z,3.85
2023-03-26T17:36:46.132Z,3.40
2023-03-26T17:42:11.390Z,3.25
2023-03-26T17:47:26.745Z,3.20
2023-03-26T17:52:39.089Z,3.33
2023-03-26T17:57:44.503Z,3.78
2023-03-26T18:02:56.202Z,3.55
2023-03-26T18:08:04.661Z,3.42
2023-03-26T18:13:40.990Z,3.25
2023-03-26T18:18:58.219Z,3.58
2023-03-26T18:24:02.173Z,4.05
2023-03-26T18:29:30.063Z,3.53
2023-03-26T18:34:34.276Z,3.85
2023-03-26T18:39:38.448Z,3.17
2023-03-26T18:44:41.484Z,3.60
2023-03-26T18:49:46.172Z,3.58
2023-03-26T18:54:53.012Z,3.83
2023-03-26T19:00:09.305Z,3.88
2023-03-26T19:05:17.247Z,3.80
2023-03-26T19:10:22.363Z,3.90
2023-03-26T19:20:37.627Z,4.13
2023-03-26T19:25:55.064Z,4.10
2023-03-26T19:31:06.754Z,3.92
2023-03-26T19:36:15.213Z,3.80
2023-03-26T19:41:25.886Z,3.28
2023-03-26T19:46:33.026Z,4.07
2023-03-26T19:51:37.136Z,3.80
2023-03-26T19:56:39.738Z,3.55
2023-03-26T20:01:42.758Z,4.13
2023-03-26T20:06:49.379Z,4.10
2023-03-26T20:11:52.828Z,4.72
2023-03-26T20:16:55.397Z,3.80
2023-03-26T20:21:58.366Z,4.47
2023-03-26T20:27:00.850Z,4.47
2023-03-26T20:32:06.529Z,4.35
2023-03-26T20:37:10.290Z,4.32
2023-03-26T20:42:16.446Z,4.07
2023-03-26T20:47:22.519Z,4.47
2023-03-26T20:52:25.845Z,4.10
2023-03-26T20:57:28.381Z,4.60
2023-03-26T21:02:31.403Z,4.00
2023-03-26T21:07:34.861Z,4.65
2023-03-26T21:12:42.484Z,4.15
2023-03-26T21:17:45.910Z,4.68
2023-03-26T21:23:19.625Z,4.97
2023-03-26T21:28:42.252Z,4.40
2023-03-26T21:33:46.087Z,4.80
2023-03-26T21:38:51.212Z,4.65
2023-03-26T21:43:53.575Z,5.05
2023-03-26T21:48:57.299Z,5.00
2023-03-26T21:54:00.636Z,5.10
2023-03-26T21:59:27.682Z,5.00
2023-03-26T22:04:56.486Z,6.20
2023-03-26T22:09:58.916Z,4.50
2023-03-26T22:15:01.857Z,5.18
2023-03-26T22:20:12.642Z,5.50
2023-03-26T22:25:19.137Z,4.63
2023-03-26T22:30:23.554Z,5.05
2023-03-26T22:35:26.894Z,5.32
2023-03-26T22:40:30.743Z,4.93
2023-03-26T22:45:33.026Z,5.72
2023-03-26T22:50:35.930Z,6.10
2023-03-26T22:55:38.813Z,6.35
2023-03-26T23:00:41.903Z,6.40
2023-03-26T23:05:44.369Z,6.10
2023-03-26T23:10:47.302Z,6.50
2023-03-26T23:15:51.503Z,5.97
2023-03-26T23:20:56.689Z,6.40
2023-03-26T23:26:02.502Z,7.15
2023-03-26T23:36:10.220Z,6.57
2023-03-26T23:41:15.458Z,8.32
2023-03-26T23:46:18.894Z,6.38
2023-03-26T23:51:22.481Z,6.05
2023-03-26T23:56:27.857Z,5.68
